Time;durP1;ratioP1;P1;durP2;ratioP2;P2;SDS_P1;SDS_P2;PMS_P1;PMS_P2;Temp;Humidity;BMP_temperature;BMP_pressure;BME280_temperature;BME280_humidity;BME280_pressure;Samples;Min_cycle;Max_cycle;Signal;HPM_P1;HPM_P2
2022/09/22 00:01:21;;;;;;;8.80;3.78;;;;;;;15.80;56.11;101830.06;5042899;28;20543;-78
2022/09/22 00:03:52;;;;;;;8.18;3.75;;;;;;;15.62;56.61;101814.81;5026594;28;20056;-78
2022/09/22 00:06:25;;;;;;;12.15;4.10;;;;;;;15.63;56.25;101819.16;5042984;28;20136;-78
2022/09/22 00:08:56;;;;;;;7.68;3.85;;;;;;;15.44;56.48;101796.75;5027896;28;20053;-78
2022/09/22 00:11:27;;;;;;;10.93;4.38;;;;;;;15.36;56.37;101791.25;5026288;28;20049;-80
2022/09/22 00:14:02;;;;;;;9.27;3.60;;;;;;;15.30;55.87;101798.00;5026420;28;20059;-79
2022/09/22 00:16:37;;;;;;;4.47;2.92;;;;;;;15.57;56.18;101832.13;5043228;28;20049;-79
2022/09/22 00:19:05;;;;;;;7.38;3.35;;;;;;;15.54;56.46;101824.38;5028067;28;20045;-78
2022/09/22 00:21:32;;;;;;;6.20;3.92;;;;;;;15.51;56.24;101832.69;5042834;28;20132;-79
2022/09/22 00:24:01;;;;;;;7.93;3.60;;;;;;;15.47;56.70;101825.91;5026408;28;20053;-80
2022/09/22 00:26:29;;;;;;;7.57;3.50;;;;;;;15.42;56.53;101833.50;5026737;28;20160;-79
2022/09/22 00:28:56;;;;;;;7.82;3.60;;;;;;;15.33;57.10;101812.94;5027371;28;20041;-81
2022/09/22 00:31:24;;;;;;;10.30;3.53;;;;;;;15.38;56.89;101821.38;5030376;28;20077;-76
2022/09/22 00:33:52;;;;;;;5.85;3.05;;;;;;;15.05;56.40;101753.03;5030159;28;20045;-80
2022/09/22 00:36:22;;;;;;;5.07;3.33;;;;;;;14.82;56.61;101725.69;5046785;28;20049;-79
2022/09/22 00:38:50;;;;;;;6.88;3.25;;;;;;;15.35;57.07;101816.31;5031775;28;20060;-80
2022/09/22 00:41:23;;;;;;;6.63;3.22;;;;;;;14.55;56.82;101687.06;5030696;28;20254;-81
2022/09/22 00:44:35;;;;;;;9.30;3.50;;;;;;;15.38;57.07;101821.38;5030671;28;20060;-81
2022/09/22 00:47:25;;;;;;;5.70;3.10;;;;;;;14.54;56.92;101688.06;5026224;28;20049;-79
2022/09/22 00:49:52;;;;;;;7.57;3.35;;;;;;;15.28;56.95;101820.53;5045908;28;20327;-80
2022/09/22 00:52:24;;;;;;;7.47;3.30;;;;;;;15.14;57.54;101814.56;5059635;28;20132;-77
2022/09/22 00:54:54;;;;;;;8.07;3.33;;;;;;;15.14;57.36;101809.22;5049746;28;20049;-79
2022/09/22 00:57:24;;;;;;;7.97;3.92;;;;;;;15.20;57.48;101817.69;5049998;28;20041;-80
2022/09/22 00:59:52;;;;;;;9.55;3.22;;;;;;;14.37;57.38;101683.31;5049545;28;20053;-78
2022/09/22 01:02:19;;;;;;;6.38;3.63;;;;;;;15.14;57.45;101809.22;5048715;28;20057;-79
2022/09/22 01:04:49;;;;;;;6.60;3.40;;;;;;;15.13;57.69;101818.22;5066459;28;20136;-80
2022/09/22 01:07:19;;;;;;;6.45;3.53;;;;;;;14.48;57.71;101710.78;5049332;28;20246;-77
2022/09/22 01:09:45;;;;;;;5.72;3.40;;;;;;;15.09;57.57;101819.47;5049705;28;20487;-78
2022/09/22 01:12:12;;;;;;;7.80;3.55;;;;;;;14.89;57.96;101791.00;5048310;28;20044;-78
2022/09/22 01:15:16;;;;;;;5.15;3.10;;;;;;;15.02;57.74;101812.13;5047516;28;20196;-80
2022/09/22 01:18:16;;;;;;;11.50;3.72;;;;;;;15.02;57.82;101812.97;5047570;28;20220;-80
2022/09/22 01:20:54;;;;;;;5.63;3.30;;;;;;;14.71;57.41;101748.88;5046812;28;20048;-79
2022/09/22 01:23:27;;;;;;;6.88;3.15;;;;;;;15.01;57.46;101813.97;5047320;28;20508;-80
2022/09/22 01:26:41;;;;;;;7.65;3.42;;;;;;;14.94;57.90;101796.78;5048280;28;20052;-80
2022/09/22 01:29:50;;;;;;;9.45;3.15;;;;;;;14.24;57.48;101695.06;5008019;28;20077;-79
2022/09/22 01:32:30;;;;;;;7.47;3.38;;;;;;;14.87;57.28;101791.13;5023531;28;20049;-78
2022/09/22 01:35:28;;;;;;;11.05;4.07;;;;;;;15.06;56.85;101803.72;5055851;28;20617;-78
2022/09/22 01:38:16;;;;;;;4.00;2.63;;;;;;;15.05;57.04;101799.38;5052895;28;20055;-78
2022/09/22 01:41:06;;;;;;;5.68;3.40;;;;;;;15.03;56.97;101805.81;5048855;28;20045;-78
2022/09/22 01:43:58;;;;;;;7.72;3.50;;;;;;;15.03;57.31;101805.81;5049306;28;20140;-78
2022/09/22 01:46:29;;;;;;;;;;;;;;;14.94;57.53;101797.63;5049757;28;20051;-79
2022/09/22 01:49:01;;;;;;;7.53;3.20;;;;;;;14.83;57.44;101784.38;5045805;28;19928;-79
2022/09/22 01:51:40;;;;;;;2.67;2.40;;;;;;;14.40;57.44;101712.44;5030914;28;20329;-79
2022/09/22 01:54:14;;;;;;;7.00;3.60;;;;;;;14.62;57.33;101739.00;5031444;28;20132;-79
2022/09/22 01:56:44;;;;;;;12.50;3.13;;;;;;;14.94;57.69;101791.44;5050363;28;20109;-78
2022/09/22 01:59:14;;;;;;;4.05;2.92;;;;;;;14.60;57.68;101746.28;5055256;28;20099;-80
2022/09/22 02:01:48;;;;;;;5.80;3.13;;;;;;;13.79;57.68;101623.34;5055122;28;20152;-79
2022/09/22 02:04:15;;;;;;;5.95;3.03;;;;;;;14.86;57.93;101807.31;5048936;28;20088;-78
2022/09/22 02:07:08;;;;;;;5.13;2.95;;;;;;;14.75;58.33;101805.56;5046498;28;20069;-78
2022/09/22 02:09:38;;;;;;;5.50;2.67;;;;;;;14.79;57.98;101800.81;5044853;28;20050;-78
2022/09/22 02:12:05;;;;;;;8.63;3.05;;;;;;;14.81;58.44;101801.53;5028000;28;20136;-77
2022/09/22 02:14:32;;;;;;;2.90;2.30;;;;;;;14.79;57.33;101792.78;5028474;28;20572;-80
2022/09/22 02:16:59;;;;;;;3.15;1.90;;;;;;;14.17;57.39;101699.25;5044492;28;20645;-79
2022/09/22 02:19:26;;;;;;;2.60;2.00;;;;;;;14.79;57.34;101798.97;5029470;28;20057;-80
2022/09/22 02:21:53;;;;;;;5.63;1.80;;;;;;;14.72;56.72;101787.13;5044336;28;20046;-80
2022/09/22 02:24:26;;;;;;;2.33;1.77;;;;;;;14.58;55.78;101764.28;5027711;28;20072;-80
2022/09/22 02:26:54;;;;;;;3.50;1.75;;;;;;;14.85;55.97;101794.91;5045290;28;20057;-79
2022/09/22 02:29:23;;;;;;;5.43;1.42;;;;;;;14.67;55.26;101758.13;5029404;28;20049;-79
2022/09/22 02:31:50;;;;;;;2.33;1.30;;;;;;;14.52;54.85;101728.22;5044994;28;20056;-79
2022/09/22 02:34:17;;;;;;;2.00;1.33;;;;;;;14.91;55.59;101791.72;5044154;28;20049;-78
2022/09/22 02:37:03;;;;;;;2.95;1.55;;;;;;;14.87;55.88;101790.28;5047015;28;20049;-78
2022/09/22 02:39:34;;;;;;;1.42;1.30;;;;;;;14.80;55.53;101779.28;5047865;28;20049;-78
2022/09/22 02:42:22;;;;;;;4.20;1.83;;;;;;;14.85;55.54;101786.91;5047585;28;20140;-79
2022/09/22 02:45:26;;;;;;;2.47;1.60;;;;;;;14.86;54.59;101792.13;5047365;28;20053;-79
2022/09/22 02:47:58;;;;;;;2.08;1.27;;;;;;;14.87;55.11;101779.59;5047308;28;20084;-79
2022/09/22 02:50:26;;;;;;;;;;;;;;;14.84;55.20;101782.53;5028173;28;20049;-79
2022/09/22 02:53:10;;;;;;;3.33;1.52;;;;;;;14.67;55.45;101754.63;5026654;28;20039;-80
2022/09/22 02:55:37;;;;;;;2.47;1.75;;;;;;;14.67;55.72;101763.47;5027347;28;20107;-78
2022/09/22 02:58:03;;;;;;;3.00;1.42;;;;;;;14.63;55.34;101746.00;5026712;28;20055;-80
2022/09/22 03:00:31;;;;;;;3.35;1.50;;;;;;;14.80;55.57;101778.44;5027201;28;20440;-78
2022/09/22 03:02:59;;;;;;;2.97;1.55;;;;;;;14.80;54.89;101783.78;5028463;28;20061;-81
2022/09/22 03:05:26;;;;;;;2.80;1.80;;;;;;;14.78;55.32;101783.06;5027839;28;20416;-80
2022/09/22 03:07:52;;;;;;;1.85;1.65;;;;;;;14.74;55.34;101783.34;5026923;28;20092;-81
2022/09/22 03:10:19;;;;;;;5.97;3.38;;;;;;;14.44;55.87;101720.06;5027769;28;20108;-81
2022/09/22 03:12:46;;;;;;;6.10;2.63;;;;;;;14.28;55.82;101709.84;5028385;28;20053;-80
2022/09/22 03:15:32;;;;;;;6.35;2.85;;;;;;;14.68;55.91;101796.41;5040814;28;20136;-79
2022/09/22 03:17:59;;;;;;;9.13;2.78;;;;;;;14.23;56.52;101733.44;5026846;28;20054;-80
2022/09/22 03:20:26;;;;;;;3.28;2.42;;;;;;;14.41;56.61;101780.91;5027314;28;20454;-80
2022/09/22 03:22:53;;;;;;;5.38;2.58;;;;;;;14.23;56.87;101762.81;5026847;28;20073;-81
2022/09/22 03:25:20;;;;;;;7.60;2.33;;;;;;;14.31;56.83;101779.03;5026613;28;20079;-79
2022/09/22 03:27:47;;;;;;;8.70;2.83;;;;;;;14.14;57.09;101758.28;5026734;28;20046;-79
2022/09/22 03:30:13;;;;;;;4.95;2.30;;;;;;;14.24;57.34;101788.53;5026924;28;20418;-79
2022/09/22 03:32:40;;;;;;;7.22;2.65;;;;;;;14.17;57.86;101781.19;5043368;28;20053;-79
2022/09/22 03:35:07;;;;;;;6.22;2.33;;;;;;;14.04;58.13;101771.56;5026755;28;20077;-79
2022/09/22 03:37:34;;;;;;;3.10;1.98;;;;;;;13.82;57.74;101721.81;5038449;28;20049;-78
2022/09/22 03:40:03;;;;;;;6.32;2.10;;;;;;;14.15;57.71;101778.66;5054093;28;20148;-80
2022/09/22 03:42:29;;;;;;;3.30;2.13;;;;;;;14.15;57.50;101777.81;5055024;28;20079;-79
2022/09/22 03:44:56;;;;;;;2.90;2.40;;;;;;;13.97;57.40;101753.53;5052791;28;20072;-79
2022/09/22 03:47:23;;;;;;;6.00;2.00;;;;;;;14.15;57.58;101776.00;5047930;28;20045;-79
2022/09/22 03:49:49;;;;;;;9.10;2.20;;;;;;;14.08;57.43;101762.31;5043383;28;20162;-80
2022/09/22 03:52:16;;;;;;;4.75;2.20;;;;;;;14.12;57.54;101776.25;5027252;28;20248;-83
2022/09/22 03:54:42;;;;;;;3.65;2.28;;;;;;;14.12;57.61;101773.56;5028219;28;20060;-80
2022/09/22 03:57:09;;;;;;;5.13;2.13;;;;;;;14.08;57.47;101783.69;5027027;28;20113;-79
2022/09/22 03:59:36;;;;;;;3.83;2.03;;;;;;;13.99;56.96;101771.09;5026969;28;20057;-79
2022/09/22 04:02:03;;;;;;;6.97;2.58;;;;;;;14.00;57.37;101777.28;5027107;28;20254;-80
2022/09/22 04:04:31;;;;;;;5.85;2.28;;;;;;;14.02;56.99;101778.00;5030203;28;20690;-78
2022/09/22 04:06:58;;;;;;;4.50;1.98;;;;;;;13.55;57.18;101702.81;5030791;28;20103;-79
2022/09/22 04:09:31;;;;;;;5.90;2.30;;;;;;;13.99;57.01;101767.59;5046563;28;20041;-80
2022/09/22 04:11:58;;;;;;;4.32;1.95;;;;;;;14.04;57.24;101781.41;5031259;28;20046;-80
2022/09/22 04:14:24;;;;;;;2.80;2.05;;;;;;;13.96;57.16;101774.03;5047422;28;20104;-78
2022/09/22 04:16:52;;;;;;;7.13;2.22;;;;;;;14.03;56.95;101790.38;5031371;28;20159;-79
2022/09/22 04:19:19;;;;;;;3.90;1.90;;;;;;;13.71;56.52;101721.03;5030626;28;20076;-79
2022/09/22 04:21:45;;;;;;;2.35;1.52;;;;;;;14.15;56.69;101778.66;5047192;28;20140;-78
2022/09/22 04:24:12;;;;;;;1.92;1.60;;;;;;;14.12;56.28;101768.22;5031534;28;20140;-78
2022/09/22 04:26:39;;;;;;;5.80;1.77;;;;;;;14.11;56.25;101758.53;5030661;28;20140;-80
2022/09/22 04:29:21;;;;;;;5.32;1.63;;;;;;;14.14;56.33;101747.59;5030487;28;20083;-78
2022/09/22 04:31:49;;;;;;;4.60;2.00;;;;;;;14.25;56.56;101760.88;5030009;28;20125;-79
2022/09/22 04:34:16;;;;;;;4.18;2.05;;;;;;;13.45;56.07;101628.06;5046635;28;20157;-79
2022/09/22 04:36:42;;;;;;;6.50;2.40;;;;;;;13.31;56.10;101607.03;5032676;28;20335;-79
2022/09/22 04:39:09;;;;;;;2.20;1.83;;;;;;;14.18;56.57;101767.72;5065543;28;20049;-80
2022/09/22 04:41:36;;;;;;;5.10;1.90;;;;;;;14.16;56.26;101775.00;5050275;28;20318;-79
2022/09/22 04:44:02;;;;;;;2.95;1.83;;;;;;;14.13;56.54;101764.59;5051047;28;20127;-81
2022/09/22 04:46:29;;;;;;;3.30;1.90;;;;;;;14.09;57.04;101769.34;5048275;28;20364;-79
2022/09/22 04:48:56;;;;;;;3.28;2.10;;;;;;;13.50;56.74;101679.19;5040214;28;20073;-80
2022/09/22 04:51:22;;;;;;;3.70;1.98;;;;;;;13.28;56.84;101656.16;5029881;28;20493;-83
2022/09/22 04:53:49;;;;;;;2.47;1.80;;;;;;;13.98;57.22;101763.22;5031508;28;20052;-81
2022/09/22 04:56:16;;;;;;;6.72;2.22;;;;;;;14.02;56.98;101772.66;5053553;28;20041;-79
2022/09/22 04:58:43;;;;;;;4.55;2.00;;;;;;;13.98;57.28;101765.88;5052221;28;20061;-80
2022/09/22 05:01:10;;;;;;;2.95;1.80;;;;;;;13.70;56.97;101708.69;5051022;28;20053;-82
2022/09/22 05:03:37;;;;;;;2.70;1.88;;;;;;;14.04;56.98;101771.56;5053032;28;20103;-81
2022/09/22 05:06:05;;;;;;;3.97;2.28;;;;;;;13.39;56.69;101666.75;5036099;28;20057;-79
2022/09/22 05:08:32;;;;;;;10.82;2.53;;;;;;;14.08;57.28;101777.50;5046449;28;20560;-79
2022/09/22 05:10:58;;;;;;;5.43;2.47;;;;;;;14.13;56.55;101775.28;5030124;28;20049;-79
2022/09/22 05:13:25;;;;;;;6.15;2.50;;;;;;;14.17;56.07;101771.34;5029307;28;20076;-81
2022/09/22 05:15:52;;;;;;;3.88;2.22;;;;;;;14.17;56.39;101776.69;5044379;28;20382;-79
2022/09/22 05:18:19;;;;;;;12.23;2.75;;;;;;;14.13;56.61;101763.72;5051854;28;20536;-79
2022/09/22 05:20:47;;;;;;;4.22;1.80;;;;;;;13.84;56.48;101703.00;5045573;28;20135;-77
2022/09/22 05:23:14;;;;;;;5.00;2.25;;;;;;;14.17;56.19;101758.00;5029115;28;20049;-80
2022/09/22 05:25:41;;;;;;;6.65;2.17;;;;;;;14.28;55.57;101775.78;4996384;28;20095;-80
2022/09/22 05:28:07;;;;;;;3.58;2.20;;;;;;;14.21;55.64;101748.75;5005752;28;20061;-79
2022/09/22 05:30:37;;;;;;;5.82;1.98;;;;;;;14.31;55.82;101773.69;4988748;28;20094;-79
2022/09/22 05:33:03;;;;;;;2.42;2.17;;;;;;;14.39;56.03;101774.84;4956645;28;20065;-79
2022/09/22 05:35:30;;;;;;;5.72;2.58;;;;;;;14.15;55.97;101741.28;5008156;28;20417;-80
2022/09/22 05:38:04;;;;;;;7.40;2.75;;;;;;;14.31;55.65;101755.00;5035312;28;20128;-78
2022/09/22 05:40:31;;;;;;;7.45;2.63;;;;;;;14.35;55.55;101757.41;5028878;28;20136;-78
2022/09/22 05:42:58;;;;;;;5.82;3.38;;;;;;;14.45;55.71;101775.16;5025964;28;20576;-82
2022/09/22 05:45:24;;;;;;;8.30;2.50;;;;;;;14.32;55.78;101755.81;5014382;28;20061;-79
2022/09/22 05:47:52;;;;;;;5.47;2.50;;;;;;;14.50;56.12;101778.28;5030678;28;20050;-78
2022/09/22 05:50:23;;;;;;;9.18;3.72;;;;;;;14.20;56.19;101717.69;5029807;28;20133;-80
2022/09/22 05:52:50;;;;;;;11.90;3.17;;;;;;;14.60;55.80;101778.38;5028793;28;20057;-79
2022/09/22 05:55:17;;;;;;;5.28;2.42;;;;;;;14.56;55.72;101768.91;5028865;28;20052;-79
2022/09/22 05:57:44;;;;;;;8.48;2.88;;;;;;;14.57;55.56;101751.91;5028261;28;20132;-80
2022/09/22 06:00:23;;;;;;;6.18;3.25;;;;;;;14.83;55.21;101788.84;5021634;28;20049;-79
2022/09/22 06:02:56;;;;;;;3.38;2.30;;;;;;;14.68;55.28;101758.97;5016158;28;20227;-78
2022/09/22 06:05:24;;;;;;;7.00;3.05;;;;;;;14.84;55.10;101779.88;5008468;28;20053;-79
2022/09/22 06:07:58;;;;;;;4.40;2.78;;;;;;;14.79;54.57;101766.91;5009430;28;20054;-80
2022/09/22 06:10:26;;;;;;;7.88;2.63;;;;;;;14.50;54.64;101724.00;5027810;28;20394;-81
2022/09/22 06:13:16;;;;;;;4.55;2.40;;;;;;;14.97;54.88;101785.81;5026151;28;20053;-80
2022/09/22 06:15:47;;;;;;;5.68;2.70;;;;;;;14.50;55.03;101698.13;5027525;28;20045;-79
2022/09/22 06:18:16;;;;;;;6.70;3.58;;;;;;;14.90;55.14;101753.44;5025598;28;20413;-80
2022/09/22 06:20:49;;;;;;;7.35;3.53;;;;;;;15.15;55.28;101789.53;5026588;28;20452;-81
2022/09/22 06:23:16;;;;;;;4.90;2.75;;;;;;;15.12;54.83;101767.53;5025749;28;20065;-80
2022/09/22 06:25:43;;;;;;;4.68;3.13;;;;;;;15.16;55.38;101767.13;5025340;28;20057;-79
2022/09/22 06:28:13;;;;;;;4.32;2.83;;;;;;;15.34;55.51;101790.53;5042551;28;20080;-78
2022/09/22 06:30:42;;;;;;;6.65;2.90;;;;;;;15.16;55.30;101751.09;5027450;28;20127;-79
2022/09/22 06:33:10;;;;;;;10.73;4.63;;;;;;;15.30;55.14;101765.06;5026052;28;20495;-77
2022/09/22 06:35:40;;;;;;;12.77;3.00;;;;;;;15.46;54.42;101778.75;5026809;28;20072;-77
2022/09/22 06:38:13;;;;;;;6.20;2.83;;;;;;;15.50;54.16;101781.97;5026981;28;20045;-78
2022/09/22 06:40:43;;;;;;;7.68;4.00;;;;;;;15.55;53.88;101777.88;5026640;28;20539;-78
2022/09/22 06:43:19;;;;;;;10.07;4.18;;;;;;;15.69;53.21;101786.50;5027234;28;20069;-80
2022/09/22 06:45:45;;;;;;;6.82;4.40;;;;;;;15.76;53.50;101793.00;5026937;28;20053;-79
2022/09/22 06:48:12;;;;;;;10.43;4.63;;;;;;;15.69;53.86;101770.44;5026307;28;20099;-78
2022/09/22 06:50:39;;;;;;;6.55;3.45;;;;;;;15.77;53.20;101771.41;5026454;28;20597;-78
2022/09/22 06:53:10;;;;;;;6.78;2.80;;;;;;;16.00;51.81;101769.28;5027174;28;20299;-79
2022/09/22 06:55:40;;;;;;;4.68;2.25;;;;;;;16.00;52.19;101780.00;5027165;28;20136;-80
2022/09/22 06:58:08;;;;;;;6.90;2.50;;;;;;;16.05;52.34;101766.19;5026918;28;20169;-81
2022/09/22 07:00:40;;;;;;;10.20;2.72;;;;;;;16.22;51.96;101778.84;5027126;28;20041;-80
2022/09/22 07:03:14;;;;;;;4.82;1.80;;;;;;;15.85;50.72;101695.75;5026099;28;20416;-78
2022/09/22 07:05:42;;;;;;;5.20;2.38;;;;;;;16.28;51.32;101772.03;5026897;28;20071;-79
2022/09/22 07:08:08;;;;;;;4.22;2.30;;;;;;;16.07;50.91;101728.53;5026371;28;20072;-79
2022/09/22 07:10:37;;;;;;;2.33;1.70;;;;;;;16.30;51.00;101769.22;5025966;28;20057;-81
2022/09/22 07:13:05;;;;;;;5.47;2.10;;;;;;;16.43;50.74;101781.31;5026562;28;20153;-78
2022/09/22 07:15:33;;;;;;;5.53;1.90;;;;;;;16.23;50.52;101726.94;5026260;28;20540;-79
2022/09/22 07:18:00;;;;;;;2.97;1.70;;;;;;;16.37;50.13;101747.06;5026516;28;20364;-78
2022/09/22 07:20:27;;;;;;;4.32;1.80;;;;;;;16.46;49.78;101758.75;5026747;28;20485;-80
2022/09/22 07:22:59;;;;;;;6.15;2.55;;;;;;;16.56;50.03;101770.28;5026268;28;20103;-81
2022/09/22 07:25:27;;;;;;;;;;;;;;;16.62;50.38;101784.91;5027041;28;20449;-79
2022/09/22 07:27:56;;;;;;;6.30;2.28;;;;;;;16.63;49.97;101791.97;5026236;28;19927;-78
2022/09/22 07:30:25;;;;;;;5.82;2.13;;;;;;;16.51;49.91;101777.91;5025891;28;20428;-79
2022/09/22 07:32:53;;;;;;;6.05;2.25;;;;;;;16.45;49.73;101755.19;5025990;28;20205;-79
2022/09/22 07:35:20;;;;;;;1.88;1.67;;;;;;;16.50;49.20;101729.81;5026595;28;20137;-80
2022/09/22 07:37:52;;;;;;;2.90;2.10;;;;;;;16.92;49.46;101785.66;5025797;28;20045;-80
2022/09/22 07:40:18;;;;;;;;;;;;;;;17.05;48.46;101791.53;5026111;28;20311;-80
2022/09/22 07:42:48;;;;;;;7.88;2.00;;;;;;;16.40;48.66;101705.72;5025978;28;20332;-80
2022/09/22 07:45:15;;;;;;;9.00;2.33;;;;;;;16.77;49.55;101786.13;5026154;28;20041;-79
2022/09/22 07:50:29;;;;;;;5.78;1.80;;;;;;;17.04;47.15;101790.69;5023667;28;20050;-81
2022/09/22 07:52:56;;;;;;;8.02;2.17;;;;;;;16.89;47.77;101776.06;5040127;28;20053;-78
2022/09/22 07:55:23;;;;;;;5.35;1.45;;;;;;;17.05;47.59;101810.31;5029281;28;20065;-78
2022/09/22 07:57:58;;;;;;;5.22;1.63;;;;;;;17.05;47.74;101807.63;5023260;28;20054;-77
2022/09/22 08:00:35;;;;;;;1.70;1.40;;;;;;;16.92;47.84;101807.09;5025904;28;20056;-79
2022/09/22 08:03:02;;;;;;;6.10;1.80;;;;;;;16.97;47.59;101799.50;5020206;28;20058;-80
2022/09/22 08:05:29;;;;;;;3.63;1.98;;;;;;;17.13;47.15;101810.38;5014401;28;20148;-80
2022/09/22 08:07:57;;;;;;;4.95;2.40;;;;;;;17.12;47.32;101813.25;5008504;28;20301;-78
2022/09/22 08:10:24;;;;;;;5.60;2.20;;;;;;;17.29;46.55;101815.94;5022692;28;20652;-80
2022/09/22 08:12:52;;;;;;;5.05;2.13;;;;;;;17.21;46.51;101815.00;5007645;28;20443;-79
2022/09/22 08:15:21;;;;;;;5.82;1.92;;;;;;;16.94;46.98;101762.22;5022667;28;20149;-79
2022/09/22 08:17:56;;;;;;;8.52;2.40;;;;;;;17.05;47.58;101791.53;5022163;28;20052;-80
2022/09/22 08:20:27;;;;;;;4.20;2.30;;;;;;;17.07;47.48;101794.91;5021806;28;20050;-80
2022/09/22 08:23:01;;;;;;;4.18;2.17;;;;;;;16.91;47.76;101758.00;5007158;28;20081;-78
2022/09/22 08:25:32;;;;;;;6.30;1.98;;;;;;;17.34;47.39;101806.59;5005709;28;20064;-77
2022/09/22 08:28:02;;;;;;;9.95;2.40;;;;;;;17.29;46.64;101799.84;5022181;28;20112;-78
2022/09/22 08:30:28;;;;;;;6.95;2.13;;;;;;;17.36;47.01;101804.63;5022399;28;20038;-79
2022/09/22 08:32:55;;;;;;;6.68;2.38;;;;;;;17.33;47.35;101811.13;5006058;28;20077;-83
2022/09/22 08:35:22;;;;;;;3.08;2.20;;;;;;;17.21;47.62;101783.66;5021240;28;20133;-80
2022/09/22 08:37:49;;;;;;;3.17;2.42;;;;;;;17.42;47.84;101815.56;5029388;28;20054;-79
2022/09/22 08:40:22;;;;;;;10.23;2.30;;;;;;;17.24;47.24;101761.88;5005976;28;20096;-79
2022/09/22 08:42:53;;;;;;;5.35;2.88;;;;;;;16.97;46.96;101713.66;5005618;28;20068;-81
2022/09/22 08:45:29;;;;;;;7.25;2.05;;;;;;;17.59;46.43;101803.16;5004793;28;20062;-80
2022/09/22 08:53:50;;;;;;;9.13;2.88;;;;;;;17.76;46.52;101779.16;5030200;28;20053;-77
2022/09/22 08:56:24;;;;;;;7.47;2.55;;;;;;;17.80;46.30;101781.41;5028531;28;20529;-79
2022/09/22 08:59:21;;;;;;;8.30;3.50;;;;;;;17.89;45.92;101801.13;5029569;28;20045;-78
2022/09/22 09:02:20;;;;;;;9.65;3.47;;;;;;;18.04;45.84;101813.00;5011461;28;20323;-79
2022/09/22 09:05:09;;;;;;;6.05;4.35;;;;;;;18.04;44.79;101767.31;5027587;28;20286;-78
2022/09/22 09:08:13;;;;;;;7.20;4.38;;;;;;;18.27;44.66;101799.88;5029830;28;20056;-78
2022/09/22 09:10:55;;;;;;;10.80;3.72;;;;;;;18.07;44.97;101750.03;5027993;28;20507;-80
2022/09/22 09:13:54;;;;;;;10.00;4.20;;;;;;;18.63;44.72;101804.31;5028021;28;20059;-78
2022/09/22 09:16:39;;;;;;;8.20;3.35;;;;;;;18.79;43.79;101789.13;5008614;28;20513;-79
2022/09/22 09:19:17;;;;;;;11.43;3.70;;;;;;;19.02;43.09;101801.13;5028055;28;20053;-79
2022/09/22 09:21:49;;;;;;;7.55;4.47;;;;;;;18.91;43.99;101760.06;5027915;28;20076;-79
2022/09/22 09:24:33;;;;;;;8.95;4.43;;;;;;;19.10;42.99;101728.50;5027868;28;20071;-79
2022/09/22 09:27:27;;;;;;;4.22;2.90;;;;;;;19.55;42.81;101786.47;5027709;28;20386;-80
2022/09/22 09:30:03;;;;;;;6.40;2.97;;;;;;;19.77;42.20;101795.75;5027531;28;20053;-78
2022/09/22 09:32:52;;;;;;;10.00;3.50;;;;;;;19.90;41.51;101798.78;5027851;28;20087;-78
2022/09/22 09:35:25;;;;;;;5.05;2.95;;;;;;;20.01;41.67;101794.91;5029419;28;20136;-79
2022/09/22 09:37:58;;;;;;;7.32;2.70;;;;;;;19.75;41.62;101716.97;5027806;28;20049;-79
2022/09/22 09:40:26;;;;;;;5.97;2.72;;;;;;;20.20;41.70;101770.28;5027584;28;20513;-81
2022/09/22 09:43:04;;;;;;;11.23;3.45;;;;;;;20.53;41.03;101789.09;5028792;28;20060;-83
2022/09/22 09:46:06;;;;;;;7.70;2.30;;;;;;;20.64;40.17;101788.75;5027419;28;20053;-82
2022/09/22 09:49:13;;;;;;;4.57;2.17;;;;;;;20.98;40.47;101787.59;5027916;28;20045;-83
2022/09/22 09:51:43;;;;;;;8.30;2.72;;;;;;;21.02;40.34;101782.69;5028412;28;20049;-80
2022/09/22 09:54:15;;;;;;;10.98;2.92;;;;;;;21.23;40.22;101788.31;5027000;28;20053;-82
2022/09/22 09:57:01;;;;;;;4.40;2.20;;;;;;;21.46;38.94;101779.44;5028712;28;20060;-79
2022/09/22 10:02:47;;;;;;;11.23;3.13;;;;;;;21.65;38.78;101783.50;5031724;28;20071;-79
2022/09/22 10:05:17;;;;;;;7.20;3.70;;;;;;;21.66;39.09;101782.47;5029729;28;20174;-78
2022/09/22 10:07:47;;;;;;;6.90;4.03;;;;;;;21.68;39.36;101767.78;5029147;28;20144;-77
2022/09/22 10:10:36;;;;;;;6.22;4.13;;;;;;;22.05;39.23;101784.19;5027423;28;20045;-79
2022/09/22 10:13:03;;;;;;;6.85;2.58;;;;;;;22.20;37.82;101779.66;5026858;28;20608;-78
2022/09/22 10:15:31;;;;;;;6.78;2.42;;;;;;;22.29;37.99;101753.38;5028011;28;20077;-77
2022/09/22 10:17:58;;;;;;;6.85;2.40;;;;;;;22.40;37.27;101756.47;5026429;28;20480;-79
2022/09/22 10:20:31;;;;;;;5.30;3.30;;;;;;;22.60;37.25;101756.72;5026867;28;20085;-77
2022/09/22 10:23:26;;;;;;;11.57;3.78;;;;;;;22.78;36.50;101777.13;5028039;28;20045;-78
2022/09/22 10:26:13;;;;;;;4.82;3.33;;;;;;;22.59;36.45;101719.00;5026695;28;20131;-78
2022/09/22 10:28:39;;;;;;;7.25;2.80;;;;;;;22.94;36.45;101747.16;5026889;28;20051;-79
2022/09/22 10:31:21;;;;;;;7.00;3.38;;;;;;;22.98;35.77;101709.72;5026462;28;20493;-77
2022/09/22 10:34:01;;;;;;;4.43;3.00;;;;;;;23.32;35.44;101725.28;5026669;28;20280;-78
2022/09/22 10:36:29;;;;;;;5.10;2.88;;;;;;;23.35;35.54;101729.47;5026870;28;20511;-79
2022/09/22 10:38:56;;;;;;;4.32;2.97;;;;;;;23.52;35.63;101749.88;5026251;28;20044;-80
2022/09/22 10:41:32;;;;;;;10.20;4.32;;;;;;;23.03;35.76;101669.34;5027478;28;20053;-79
2022/09/22 10:44:16;;;;;;;8.00;3.53;;;;;;;23.58;35.36;101737.41;5026198;28;20053;-80
2022/09/22 10:47:17;;;;;;;4.28;2.72;;;;;;;22.58;35.43;101601.81;5026778;28;20052;-80
2022/09/22 10:50:29;;;;;;;5.88;2.50;;;;;;;23.23;35.25;101727.28;5026397;28;20505;-80
2022/09/22 10:53:20;;;;;;;13.63;2.38;;;;;;;23.14;35.58;101755.53;5026054;28;20085;-79
2022/09/22 10:56:04;;;;;;;5.30;2.70;;;;;;;22.76;35.42;101746.72;5026456;28;20077;-79
2022/09/22 10:58:58;;;;;;;2.38;1.88;;;;;;;22.93;33.16;101750.03;5026534;28;20064;-79
2022/09/22 11:02:24;;;;;;;2.17;1.80;;;;;;;22.92;33.56;101680.69;5027558;28;20079;-79
2022/09/22 11:14:20;;;;;;;1.50;1.30;;;;;;;23.76;32.04;101680.03;5026247;28;20501;-81
2022/09/22 11:16:47;;;;;;;2.42;2.15;;;;;;;23.89;33.52;101734.38;5024827;28;20057;-80
2022/09/22 11:19:58;;;;;;;2.65;2.30;;;;;;;23.64;32.84;101742.91;5024866;28;20796;-79
2022/09/22 11:22:56;;;;;;;4.27;2.70;;;;;;;23.37;33.39;101708.44;5022966;28;20171;-79
2022/09/22 11:25:47;;;;;;;5.35;2.17;;;;;;;23.35;32.80;101732.19;5025862;28;20312;-78
2022/09/22 11:28:33;;;;;;;5.97;2.70;;;;;;;23.33;34.20;101728.84;5025050;28;20441;-78
2022/09/22 11:30:59;;;;;;;8.57;2.88;;;;;;;23.04;34.48;101709.78;5025368;28;20049;-78
2022/09/22 11:34:05;;;;;;;4.85;2.17;;;;;;;22.54;34.77;101616.75;5024842;28;20397;-77
2022/09/22 11:37:31;;;;;;;4.95;2.70;;;;;;;23.46;35.20;101720.84;5025294;28;20127;-78
2022/09/22 11:40:25;;;;;;;7.72;2.90;;;;;;;23.72;34.69;101711.25;5026938;28;20146;-78
2022/09/22 11:43:03;;;;;;;2.60;2.40;;;;;;;23.72;34.61;101657.03;5025431;28;20357;-77
2022/09/22 11:46:05;;;;;;;2.63;2.30;;;;;;;24.41;33.77;101700.44;5025164;28;20072;-77
2022/09/22 11:48:44;;;;;;;3.22;2.17;;;;;;;24.67;33.53;101691.63;4990786;28;20223;-78
2022/09/22 11:51:39;;;;;;;4.68;2.03;;;;;;;24.49;32.38;101637.91;5025282;28;20080;-78
2022/09/22 11:54:24;;;;;;;4.53;2.00;;;;;;;24.76;31.67;101686.00;5024923;28;20053;-78
2022/09/22 11:57:05;;;;;;;2.15;1.80;;;;;;;24.36;32.64;101666.81;5025071;28;20126;-80
2022/09/22 12:00:02;;;;;;;15.68;3.00;;;;;;;23.87;33.00;101627.97;5024463;28;20054;-81
2022/09/22 12:02:50;;;;;;;11.65;2.97;;;;;;;23.59;33.33;101615.25;5017938;28;20129;-81
2022/09/22 12:05:39;;;;;;;11.23;2.65;;;;;;;23.76;33.12;101669.19;5024506;28;20071;-82
2022/09/22 12:08:19;;;;;;;4.15;2.30;;;;;;;23.60;33.85;101667.59;5024530;28;20049;-82
2022/09/22 12:10:52;;;;;;;5.57;2.60;;;;;;;23.54;34.28;101671.06;5025875;28;20511;-80
2022/09/22 12:13:31;;;;;;;4.57;2.40;;;;;;;22.85;33.69;101595.84;5024767;28;20045;-81
2022/09/22 12:16:18;;;;;;;3.80;2.05;;;;;;;22.64;33.75;101572.31;5041581;28;20099;-81
2022/09/22 12:19:33;;;;;;;4.07;2.00;;;;;;;22.90;34.40;101667.31;5031161;28;20045;-83